sensor_id;sensor_type;location;lat;lon;timestamp;temperature;humidity
7232;DHT22;3657;49.630;11.018;2022-07-23T00:02:21;27.70;51.30
7232;DHT22;3657;49.630;11.018;2022-07-23T00:04:48;27.60;51.30
7232;DHT22;3657;49.630;11.018;2022-07-23T00:07:14;27.60;51.40
7232;DHT22;3657;49.630;11.018;2022-07-23T00:09:41;27.50;51.80
7232;DHT22;3657;49.630;11.018;2022-07-23T00:12:08;27.50;51.50
7232;DHT22;3657;49.630;11.018;2022-07-23T00:14:35;27.50;51.50
7232;DHT22;3657;49.630;11.018;2022-07-23T00:17:02;27.50;51.60
7232;DHT22;3657;49.630;11.018;2022-07-23T00:19:30;27.50;51.70
7232;DHT22;3657;49.630;11.018;2022-07-23T00:21:56;27.40;51.70
7232;DHT22;3657;49.630;11.018;2022-07-23T00:24:23;27.40;51.80
7232;DHT22;3657;49.630;11.018;2022-07-23T00:26:50;27.40;52.10
7232;DHT22;3657;49.630;11.018;2022-07-23T00:29:17;27.40;52.20
7232;DHT22;3657;49.630;11.018;2022-07-23T00:31:43;27.40;52.10
7232;DHT22;3657;49.630;11.018;2022-07-23T00:34:10;27.30;52.00
7232;DHT22;3657;49.630;11.018;2022-07-23T00:36:38;27.30;52.60
7232;DHT22;3657;49.630;11.018;2022-07-23T00:39:05;27.20;53.10
7232;DHT22;3657;49.630;11.018;2022-07-23T00:41:32;27.20;52.20
7232;DHT22;3657;49.630;11.018;2022-07-23T00:44:14;27.10;52.20
7232;DHT22;3657;49.630;11.018;2022-07-23T00:46:45;27.20;52.20
7232;DHT22;3657;49.630;11.018;2022-07-23T00:49:12;27.10;52.20
7232;DHT22;3657;49.630;11.018;2022-07-23T00:51:40;27.10;52.70
7232;DHT22;3657;49.630;11.018;2022-07-23T00:54:07;27.10;52.30
7232;DHT22;3657;49.630;11.018;2022-07-23T00:56:34;27.10;52.30
7232;DHT22;3657;49.630;11.018;2022-07-23T00:59:01;27.10;52.30
7232;DHT22;3657;49.630;11.018;2022-07-23T01:01:28;27.00;52.40
7232;DHT22;3657;49.630;11.018;2022-07-23T01:03:55;27.00;52.40
7232;DHT22;3657;49.630;11.018;2022-07-23T01:06:21;26.90;52.40
7232;DHT22;3657;49.630;11.018;2022-07-23T01:08:50;26.80;52.50
7232;DHT22;3657;49.630;11.018;2022-07-23T01:11:18;26.90;52.60
7232;DHT22;3657;49.630;11.018;2022-07-23T01:13:45;26.80;52.70
7232;DHT22;3657;49.630;11.018;2022-07-23T01:16:12;26.80;52.60
7232;DHT22;3657;49.630;11.018;2022-07-23T01:18:39;26.80;52.70
7232;DHT22;3657;49.630;11.018;2022-07-23T01:21:06;26.80;52.70
7232;DHT22;3657;49.630;11.018;2022-07-23T01:23:34;26.80;52.90
7232;DHT22;3657;49.630;11.018;2022-07-23T01:26:01;26.70;52.90
7232;DHT22;3657;49.630;11.018;2022-07-23T01:28:27;26.70;52.90
7232;DHT22;3657;49.630;11.018;2022-07-23T01:30:54;26.70;52.90
7232;DHT22;3657;49.630;11.018;2022-07-23T01:33:21;26.60;52.80
7232;DHT22;3657;49.630;11.018;2022-07-23T01:35:47;26.60;52.90
7232;DHT22;3657;49.630;11.018;2022-07-23T01:38:14;26.60;52.90
7232;DHT22;3657;49.630;11.018;2022-07-23T01:40:42;26.60;53.00
7232;DHT22;3657;49.630;11.018;2022-07-23T01:43:09;26.50;53.00
7232;DHT22;3657;49.630;11.018;2022-07-23T01:45:36;26.50;53.00
7232;DHT22;3657;49.630;11.018;2022-07-23T01:48:03;26.50;53.00
7232;DHT22;3657;49.630;11.018;2022-07-23T01:50:30;26.50;53.10
7232;DHT22;3657;49.630;11.018;2022-07-23T01:52:56;26.50;53.10
7232;DHT22;3657;49.630;11.018;2022-07-23T01:55:23;26.40;53.10
7232;DHT22;3657;49.630;11.018;2022-07-23T01:57:51;26.40;53.10
7232;DHT22;3657;49.630;11.018;2022-07-23T02:00:18;26.40;53.20
7232;DHT22;3657;49.630;11.018;2022-07-23T02:02:45;26.30;53.20
7232;DHT22;3657;49.630;11.018;2022-07-23T02:05:11;26.30;53.30
7232;DHT22;3657;49.630;11.018;2022-07-23T02:07:38;26.30;53.30
7232;DHT22;3657;49.630;11.018;2022-07-23T02:10:06;26.20;53.30
7232;DHT22;3657;49.630;11.018;2022-07-23T02:12:33;26.20;53.30
7232;DHT22;3657;49.630;11.018;2022-07-23T02:15:01;26.20;53.40
7232;DHT22;3657;49.630;11.018;2022-07-23T02:17:28;26.20;53.50
7232;DHT22;3657;49.630;11.018;2022-07-23T02:19:55;26.20;53.50
7232;DHT22;3657;49.630;11.018;2022-07-23T02:22:22;26.10;53.40
7232;DHT22;3657;49.630;11.018;2022-07-23T02:24:48;26.10;53.60
7232;DHT22;3657;49.630;11.018;2022-07-23T02:27:15;26.10;53.90
7232;DHT22;3657;49.630;11.018;2022-07-23T02:29:42;25.80;56.80
7232;DHT22;3657;49.630;11.018;2022-07-23T02:32:10;25.60;55.10
7232;DHT22;3657;49.630;11.018;2022-07-23T02:34:37;25.60;57.80
7232;DHT22;3657;49.630;11.018;2022-07-23T02:37:04;25.40;55.30
7232;DHT22;3657;49.630;11.018;2022-07-23T02:39:30;25.50;54.70
7232;DHT22;3657;49.630;11.018;2022-07-23T02:41:57;25.40;57.70
7232;DHT22;3657;49.630;11.018;2022-07-23T02:44:24;25.30;58.70
7232;DHT22;3657;49.630;11.018;2022-07-23T02:46:50;25.00;56.90
7232;DHT22;3657;49.630;11.018;2022-07-23T02:49:19;25.00;56.30
7232;DHT22;3657;49.630;11.018;2022-07-23T02:51:45;24.80;60.40
7232;DHT22;3657;49.630;11.018;2022-07-23T02:54:12;24.60;60.60
7232;DHT22;3657;49.630;11.018;2022-07-23T02:56:39;24.50;60.60
7232;DHT22;3657;49.630;11.018;2022-07-23T02:59:05;24.40;61.50
7232;DHT22;3657;49.630;11.018;2022-07-23T03:01:32;24.40;58.60
7232;DHT22;3657;49.630;11.018;2022-07-23T03:03:59;24.60;57.40
7232;DHT22;3657;49.630;11.018;2022-07-23T03:06:27;24.70;59.10
7232;DHT22;3657;49.630;11.018;2022-07-23T03:08:54;24.80;56.60
7232;DHT22;3657;49.630;11.018;2022-07-23T03:11:20;25.00;56.30
7232;DHT22;3657;49.630;11.018;2022-07-23T03:13:47;25.00;59.00
7232;DHT22;3657;49.630;11.018;2022-07-23T03:16:14;24.90;58.60
7232;DHT22;3657;49.630;11.018;2022-07-23T03:18:40;24.90;57.00
7232;DHT22;3657;49.630;11.018;2022-07-23T03:21:07;25.00;56.60
7232;DHT22;3657;49.630;11.018;2022-07-23T03:23:35;25.10;56.30
7232;DHT22;3657;49.630;11.018;2022-07-23T03:26:02;25.10;56.00
7232;DHT22;3657;49.630;11.018;2022-07-23T03:28:29;25.20;55.90
7232;DHT22;3657;49.630;11.018;2022-07-23T03:30:56;25.20;55.80
7232;DHT22;3657;49.630;11.018;2022-07-23T03:33:23;25.20;55.80
7232;DHT22;3657;49.630;11.018;2022-07-23T03:35:50;25.30;55.80
7232;DHT22;3657;49.630;11.018;2022-07-23T03:38:17;25.30;55.80
7232;DHT22;3657;49.630;11.018;2022-07-23T03:40:45;25.20;58.40
7232;DHT22;3657;49.630;11.018;2022-07-23T03:43:11;25.20;56.70
7232;DHT22;3657;49.630;11.018;2022-07-23T03:45:38;24.90;60.00
7232;DHT22;3657;49.630;11.018;2022-07-23T03:48:05;24.70;59.40
7232;DHT22;3657;49.630;11.018;2022-07-23T03:50:32;24.20;62.40
7232;DHT22;3657;49.630;11.018;2022-07-23T03:53:00;24.10;59.00
7232;DHT22;3657;49.630;11.018;2022-07-23T03:55:27;24.20;59.10
7232;DHT22;3657;49.630;11.018;2022-07-23T03:57:55;24.30;58.00
7232;DHT22;3657;49.630;11.018;2022-07-23T04:00:21;24.40;57.60
7232;DHT22;3657;49.630;11.018;2022-07-23T04:02:48;24.60;57.30
7232;DHT22;3657;49.630;11.018;2022-07-23T04:05:15;24.70;57.10
7232;DHT22;3657;49.630;11.018;2022-07-23T04:07:41;24.80;57.00
7232;DHT22;3657;49.630;11.018;2022-07-23T04:10:08;24.90;56.80
7232;DHT22;3657;49.630;11.018;2022-07-23T04:12:35;24.90;56.70
7232;DHT22;3657;49.630;11.018;2022-07-23T04:15:06;24.90;56.60
7232;DHT22;3657;49.630;11.018;2022-07-23T04:17:33;24.90;56.90
7232;DHT22;3657;49.630;11.018;2022-07-23T04:20:00;24.90;59.00
7232;DHT22;3657;49.630;11.018;2022-07-23T04:22:26;24.70;57.60
7232;DHT22;3657;49.630;11.018;2022-07-23T04:24:53;24.60;60.20
7232;DHT22;3657;49.630;11.018;2022-07-23T04:27:20;24.60;58.10
7232;DHT22;3657;49.630;11.018;2022-07-23T04:29:46;24.20;59.70
7232;DHT22;3657;49.630;11.018;2022-07-23T04:32:14;24.20;60.80
7232;DHT22;3657;49.630;11.018;2022-07-23T04:34:41;24.20;58.10
7232;DHT22;3657;49.630;11.018;2022-07-23T04:37:08;24.20;62.10
7232;DHT22;3657;49.630;11.018;2022-07-23T04:39:35;23.90;61.30
7232;DHT22;3657;49.630;11.018;2022-07-23T04:42:01;24.00;60.80
7232;DHT22;3657;49.630;11.018;2022-07-23T04:44:28;24.10;59.20
7232;DHT22;3657;49.630;11.018;2022-07-23T04:46:55;24.00;61.20
7232;DHT22;3657;49.630;11.018;2022-07-23T04:49:23;24.00;62.70
7232;DHT22;3657;49.630;11.018;2022-07-23T04:51:49;24.00;62.10
7232;DHT22;3657;49.630;11.018;2022-07-23T04:54:16;24.00;59.80
7232;DHT22;3657;49.630;11.018;2022-07-23T04:56:43;23.90;62.20
7232;DHT22;3657;49.630;11.018;2022-07-23T04:59:10;23.90;63.30
7232;DHT22;3657;49.630;11.018;2022-07-23T05:01:37;23.80;64.30
7232;DHT22;3657;49.630;11.018;2022-07-23T05:04:04;23.50;64.60
7232;DHT22;3657;49.630;11.018;2022-07-23T05:06:32;23.40;63.80
7232;DHT22;3657;49.630;11.018;2022-07-23T05:08:58;23.50;64.10
7232;DHT22;3657;49.630;11.018;2022-07-23T05:11:25;23.40;64.20
7232;DHT22;3657;49.630;11.018;2022-07-23T05:13:52;23.40;63.20
7232;DHT22;3657;49.630;11.018;2022-07-23T05:16:18;23.30;63.40
7232;DHT22;3657;49.630;11.018;2022-07-23T05:18:45;23.50;62.20
7232;DHT22;3657;49.630;11.018;2022-07-23T05:21:12;23.70;62.20
7232;DHT22;3657;49.630;11.018;2022-07-23T05:23:40;23.80;62.90
7232;DHT22;3657;49.630;11.018;2022-07-23T05:26:07;24.00;63.40
7232;DHT22;3657;49.630;11.018;2022-07-23T05:28:33;24.20;61.80
7232;DHT22;3657;49.630;11.018;2022-07-23T05:31:00;24.40;60.60
7232;DHT22;3657;49.630;11.018;2022-07-23T05:33:27;24.50;60.50
7232;DHT22;3657;49.630;11.018;2022-07-23T05:35:53;24.50;62.90
7232;DHT22;3657;49.630;11.018;2022-07-23T05:38:20;24.40;60.90
7232;DHT22;3657;49.630;11.018;2022-07-23T05:40:48;24.60;59.70
7232;DHT22;3657;49.630;11.018;2022-07-23T05:43:15;24.80;61.20
7232;DHT22;3657;49.630;11.018;2022-07-23T05:45:42;24.90;60.90
7232;DHT22;3657;49.630;11.018;2022-07-23T05:48:08;25.10;62.70
7232;DHT22;3657;49.630;11.018;2022-07-23T05:50:35;25.20;60.70
7232;DHT22;3657;49.630;11.018;2022-07-23T05:53:02;25.40;58.40
7232;DHT22;3657;49.630;11.018;2022-07-23T05:55:29;25.50;58.30
7232;DHT22;3657;49.630;11.018;2022-07-23T05:57:59;25.40;59.20
7232;DHT22;3657;49.630;11.018;2022-07-23T06:00:26;25.40;59.20
7232;DHT22;3657;49.630;11.018;2022-07-23T06:02:53;25.30;60.00
7232;DHT22;3657;49.630;11.018;2022-07-23T06:05:20;25.20;61.00
7232;DHT22;3657;49.630;11.018;2022-07-23T06:07:46;25.00;60.30
7232;DHT22;3657;49.630;11.018;2022-07-23T06:10:13;25.10;59.30
7232;DHT22;3657;49.630;11.018;2022-07-23T06:12:40;25.10;59.70
7232;DHT22;3657;49.630;11.018;2022-07-23T06:15:09;25.20;58.70
7232;DHT22;3657;49.630;11.018;2022-07-23T06:17:37;25.20;59.40
7232;DHT22;3657;49.630;11.018;2022-07-23T06:20:05;25.30;58.20
7232;DHT22;3657;49.630;11.018;2022-07-23T06:22:32;25.30;58.40
7232;DHT22;3657;49.630;11.018;2022-07-23T06:24:59;25.30;59.50
7232;DHT22;3657;49.630;11.018;2022-07-23T06:27:26;25.30;59.50
7232;DHT22;3657;49.630;11.018;2022-07-23T06:29:53;25.40;58.30
7232;DHT22;3657;49.630;11.018;2022-07-23T06:32:21;25.60;58.40
7232;DHT22;3657;49.630;11.018;2022-07-23T06:34:48;26.00;57.50
7232;DHT22;3657;49.630;11.018;2022-07-23T06:37:15;26.40;57.20
7232;DHT22;3657;49.630;11.018;2022-07-23T06:39:41;26.80;56.40
7232;DHT22;3657;49.630;11.018;2022-07-23T06:42:08;27.10;56.00
7232;DHT22;3657;49.630;11.018;2022-07-23T06:44:35;27.40;56.60
7232;DHT22;3657;49.630;11.018;2022-07-23T06:47:02;27.70;55.40
7232;DHT22;3657;49.630;11.018;2022-07-23T06:49:31;27.80;55.60
7232;DHT22;3657;49.630;11.018;2022-07-23T06:51:58;27.90;56.40
7232;DHT22;3657;49.630;11.018;2022-07-23T06:54:24;27.90;55.60
7232;DHT22;3657;49.630;11.018;2022-07-23T06:56:51;27.80;56.40
7232;DHT22;3657;49.630;11.018;2022-07-23T06:59:18;27.40;58.10
7232;DHT22;3657;49.630;11.018;2022-07-23T07:01:45;27.20;58.00
7232;DHT22;3657;49.630;11.018;2022-07-23T07:04:12;27.00;58.10
7232;DHT22;3657;49.630;11.018;2022-07-23T07:06:40;26.70;58.60
7232;DHT22;3657;49.630;11.018;2022-07-23T07:09:07;26.60;58.80
7232;DHT22;3657;49.630;11.018;2022-07-23T07:11:34;26.50;58.60
7232;DHT22;3657;49.630;11.018;2022-07-23T07:14:01;26.50;59.20
7232;DHT22;3657;49.630;11.018;2022-07-23T07:16:27;26.60;58.60
7232;DHT22;3657;49.630;11.018;2022-07-23T07:18:54;26.90;58.80
7232;DHT22;3657;49.630;11.018;2022-07-23T07:21:21;27.10;58.40
7232;DHT22;3657;49.630;11.018;2022-07-23T07:23:49;27.30;58.20
7232;DHT22;3657;49.630;11.018;2022-07-23T07:26:16;27.40;58.80
7232;DHT22;3657;49.630;11.018;2022-07-23T07:28:43;27.30;59.00
7232;DHT22;3657;49.630;11.018;2022-07-23T07:31:10;27.20;58.90
7232;DHT22;3657;49.630;11.018;2022-07-23T07:33:36;27.20;58.90
7232;DHT22;3657;49.630;11.018;2022-07-23T07:36:04;27.20;59.00
7232;DHT22;3657;49.630;11.018;2022-07-23T07:38:31;27.20;58.80
7232;DHT22;3657;49.630;11.018;2022-07-23T07:40:59;27.20;58.60
7232;DHT22;3657;49.630;11.018;2022-07-23T07:43:26;27.10;58.90
7232;DHT22;3657;49.630;11.018;2022-07-23T07:45:52;27.00;59.00
7232;DHT22;3657;49.630;11.018;2022-07-23T07:48:19;27.00;59.80
7232;DHT22;3657;49.630;11.018;2022-07-23T07:50:46;26.90;59.90
7232;DHT22;3657;49.630;11.018;2022-07-23T07:53:13;26.80;59.80
7232;DHT22;3657;49.630;11.018;2022-07-23T07:55:39;26.80;61.20
7232;DHT22;3657;49.630;11.018;2022-07-23T07:58:07;26.70;63.90
7232;DHT22;3657;49.630;11.018;2022-07-23T08:00:34;26.60;62.50
7232;DHT22;3657;49.630;11.018;2022-07-23T08:03:01;26.60;62.60
7232;DHT22;3657;49.630;11.018;2022-07-23T08:05:28;26.70;65.20
7232;DHT22;3657;49.630;11.018;2022-07-23T08:07:56;26.70;63.10
7232;DHT22;3657;49.630;11.018;2022-07-23T08:10:24;26.80;63.50
7232;DHT22;3657;49.630;11.018;2022-07-23T08:12:52;26.80;63.90
7232;DHT22;3657;49.630;11.018;2022-07-23T08:15:22;26.80;64.50
7232;DHT22;3657;49.630;11.018;2022-07-23T08:17:49;26.80;65.20
7232;DHT22;3657;49.630;11.018;2022-07-23T08:20:18;26.80;65.80
7232;DHT22;3657;49.630;11.018;2022-07-23T08:22:47;26.80;65.30
7232;DHT22;3657;49.630;11.018;2022-07-23T08:25:15;26.70;65.30
7232;DHT22;3657;49.630;11.018;2022-07-23T08:27:42;26.70;66.00
7232;DHT22;3657;49.630;11.018;2022-07-23T08:30:09;26.60;66.00
7232;DHT22;3657;49.630;11.018;2022-07-23T08:32:53;26.60;65.80
7232;DHT22;3657;49.630;11.018;2022-07-23T08:35:25;26.50;64.70
7232;DHT22;3657;49.630;11.018;2022-07-23T08:37:52;26.50;64.70
7232;DHT22;3657;49.630;11.018;2022-07-23T08:40:19;26.40;66.30
7232;DHT22;3657;49.630;11.018;2022-07-23T08:42:48;26.40;66.30
7232;DHT22;3657;49.630;11.018;2022-07-23T08:45:17;26.30;66.60
7232;DHT22;3657;49.630;11.018;2022-07-23T08:47:49;26.30;66.60
7232;DHT22;3657;49.630;11.018;2022-07-23T08:50:17;26.30;66.90
7232;DHT22;3657;49.630;11.018;2022-07-23T08:52:44;26.30;66.10
7232;DHT22;3657;49.630;11.018;2022-07-23T08:55:11;26.40;66.20
7232;DHT22;3657;49.630;11.018;2022-07-23T08:57:38;26.40;66.30
7232;DHT22;3657;49.630;11.018;2022-07-23T09:00:06;26.50;66.20
7232;DHT22;3657;49.630;11.018;2022-07-23T09:02:39;26.50;66.20
7232;DHT22;3657;49.630;11.018;2022-07-23T09:05:07;26.60;66.60
7232;DHT22;3657;49.630;11.018;2022-07-23T09:07:35;26.90;68.00
7232;DHT22;3657;49.630;11.018;2022-07-23T09:10:07;27.10;67.90
7232;DHT22;3657;49.630;11.018;2022-07-23T09:12:34;27.10;68.60
7232;DHT22;3657;49.630;11.018;2022-07-23T09:15:05;27.10;69.20
7232;DHT22;3657;49.630;11.018;2022-07-23T09:17:40;27.50;68.50
7232;DHT22;3657;49.630;11.018;2022-07-23T09:20:09;27.80;68.80
7232;DHT22;3657;49.630;11.018;2022-07-23T09:22:38;27.90;68.20
7232;DHT22;3657;49.630;11.018;2022-07-23T09:25:09;27.80;70.20
7232;DHT22;3657;49.630;11.018;2022-07-23T09:27:48;27.60;68.30
7232;DHT22;3657;49.630;11.018;2022-07-23T09:30:15;27.50;68.40
7232;DHT22;3657;49.630;11.018;2022-07-23T09:32:42;27.40;68.80
7232;DHT22;3657;49.630;11.018;2022-07-23T09:35:09;27.50;68.20
7232;DHT22;3657;49.630;11.018;2022-07-23T09:37:37;27.80;68.30
7232;DHT22;3657;49.630;11.018;2022-07-23T09:40:06;27.70;67.20
7232;DHT22;3657;49.630;11.018;2022-07-23T09:42:34;27.70;69.20
7232;DHT22;3657;49.630;11.018;2022-07-23T09:45:01;27.60;67.60
7232;DHT22;3657;49.630;11.018;2022-07-23T09:47:29;27.50;68.80
7232;DHT22;3657;49.630;11.018;2022-07-23T09:50:00;27.30;68.20
7232;DHT22;3657;49.630;11.018;2022-07-23T09:52:31;26.90;69.00
7232;DHT22;3657;49.630;11.018;2022-07-23T09:55:00;26.80;69.20
7232;DHT22;3657;49.630;11.018;2022-07-23T09:57:27;26.80;68.80
7232;DHT22;3657;49.630;11.018;2022-07-23T09:59:57;26.90;69.20
7232;DHT22;3657;49.630;11.018;2022-07-23T10:02:24;27.00;67.90
7232;DHT22;3657;49.630;11.018;2022-07-23T10:04:53;27.20;68.60
7232;DHT22;3657;49.630;11.018;2022-07-23T10:07:21;27.30;68.80
7232;DHT22;3657;49.630;11.018;2022-07-23T10:09:50;27.30;68.10
7232;DHT22;3657;49.630;11.018;2022-07-23T10:12:20;27.20;68.90
7232;DHT22;3657;49.630;11.018;2022-07-23T10:14:56;27.20;69.50
7232;DHT22;3657;49.630;11.018;2022-07-23T10:17:24;27.10;70.30
7232;DHT22;3657;49.630;11.018;2022-07-23T10:19:50;27.00;70.50
7232;DHT22;3657;49.630;11.018;2022-07-23T10:22:20;27.00;70.50
7232;DHT22;3657;49.630;11.018;2022-07-23T10:25:08;26.90;70.10
7232;DHT22;3657;49.630;11.018;2022-07-23T10:28:02;26.90;70.00
7232;DHT22;3657;49.630;11.018;2022-07-23T10:30:35;26.90;69.60
7232;DHT22;3657;49.630;11.018;2022-07-23T10:33:20;26.90;70.00
7232;DHT22;3657;49.630;11.018;2022-07-23T10:35:55;26.80;70.00
7232;DHT22;3657;49.630;11.018;2022-07-23T10:38:27;26.80;70.30
7232;DHT22;3657;49.630;11.018;2022-07-23T10:40:59;26.50;72.10
7232;DHT22;3657;49.630;11.018;2022-07-23T10:43:28;26.40;72.70
7232;DHT22;3657;49.630;11.018;2022-07-23T10:45:56;26.40;72.50
7232;DHT22;3657;49.630;11.018;2022-07-23T10:48:42;26.50;71.80
7232;DHT22;3657;49.630;11.018;2022-07-23T10:51:11;26.80;71.30
7232;DHT22;3657;49.630;11.018;2022-07-23T10:53:58;26.90;71.10
7232;DHT22;3657;49.630;11.018;2022-07-23T10:56:50;26.90;70.50
7232;DHT22;3657;49.630;11.018;2022-07-23T10:59:31;26.90;70.10
7232;DHT22;3657;49.630;11.018;2022-07-23T11:02:22;26.90;69.90
7232;DHT22;3657;49.630;11.018;2022-07-23T11:04:52;26.90;70.50
7232;DHT22;3657;49.630;11.018;2022-07-23T11:07:19;26.90;70.40
7232;DHT22;3657;49.630;11.018;2022-07-23T11:09:45;26.90;70.30
7232;DHT22;3657;49.630;11.018;2022-07-23T11:12:32;26.90;70.10
7232;DHT22;3657;49.630;11.018;2022-07-23T11:15:05;27.00;69.80
7232;DHT22;3657;49.630;11.018;2022-07-23T11:17:34;27.00;69.70
7232;DHT22;3657;49.630;11.018;2022-07-23T11:20:18;27.00;69.70
7232;DHT22;3657;49.630;11.018;2022-07-23T11:22:54;26.80;70.20
7232;DHT22;3657;49.630;11.018;2022-07-23T11:25:35;26.70;70.40
7232;DHT22;3657;49.630;11.018;2022-07-23T11:28:13;26.80;70.50
7232;DHT22;3657;49.630;11.018;2022-07-23T11:30:43;26.80;71.00
7232;DHT22;3657;49.630;11.018;2022-07-23T11:33:21;26.80;71.20
7232;DHT22;3657;49.630;11.018;2022-07-23T11:35:59;26.80;71.40
7232;DHT22;3657;49.630;11.018;2022-07-23T11:38:30;26.80;71.60
7232;DHT22;3657;49.630;11.018;2022-07-23T11:40:58;26.80;72.30
7232;DHT22;3657;49.630;11.018;2022-07-23T11:43:25;26.80;71.50
7232;DHT22;3657;49.630;11.018;2022-07-23T11:45:56;26.80;71.40
7232;DHT22;3657;49.630;11.018;2022-07-23T11:48:25;26.70;72.20
7232;DHT22;3657;49.630;11.018;2022-07-23T11:50:53;26.60;72.40
7232;DHT22;3657;49.630;11.018;2022-07-23T11:53:23;26.70;72.60
7232;DHT22;3657;49.630;11.018;2022-07-23T11:55:50;26.80;71.90
7232;DHT22;3657;49.630;11.018;2022-07-23T11:58:17;27.00;71.50
7232;DHT22;3657;49.630;11.018;2022-07-23T12:00:44;27.20;71.40
7232;DHT22;3657;49.630;11.018;2022-07-23T12:03:13;27.30;71.40
7232;DHT22;3657;49.630;11.018;2022-07-23T12:05:40;27.40;71.70
7232;DHT22;3657;49.630;11.018;2022-07-23T12:08:08;27.50;71.60
7232;DHT22;3657;49.630;11.018;2022-07-23T12:10:37;27.60;70.40
7232;DHT22;3657;49.630;11.018;2022-07-23T12:13:05;27.80;70.40
7232;DHT22;3657;49.630;11.018;2022-07-23T12:15:34;27.90;70.60
7232;DHT22;3657;49.630;11.018;2022-07-23T12:18:04;28.00;70.40
7232;DHT22;3657;49.630;11.018;2022-07-23T12:20:35;28.00;70.30
7232;DHT22;3657;49.630;11.018;2022-07-23T12:23:04;28.10;70.20
7232;DHT22;3657;49.630;11.018;2022-07-23T12:25:32;28.20;69.90
7232;DHT22;3657;49.630;11.018;2022-07-23T12:28:02;28.20;69.60
7232;DHT22;3657;49.630;11.018;2022-07-23T12:30:31;28.00;69.90
7232;DHT22;3657;49.630;11.018;2022-07-23T12:32:59;27.90;69.10
7232;DHT22;3657;49.630;11.018;2022-07-23T12:35:33;28.00;70.10
7232;DHT22;3657;49.630;11.018;2022-07-23T12:38:01;28.30;70.10
7232;DHT22;3657;49.630;11.018;2022-07-23T12:40:30;28.60;68.30
7232;DHT22;3657;49.630;11.018;2022-07-23T12:42:59;29.00;68.40
7232;DHT22;3657;49.630;11.018;2022-07-23T12:45:27;29.20;67.50
7232;DHT22;3657;49.630;11.018;2022-07-23T12:48:03;29.40;67.70
7232;DHT22;3657;49.630;11.018;2022-07-23T12:50:38;29.40;66.30
7232;DHT22;3657;49.630;11.018;2022-07-23T12:53:08;29.60;67.10
7232;DHT22;3657;49.630;11.018;2022-07-23T12:55:35;29.70;64.20
7232;DHT22;3657;49.630;11.018;2022-07-23T12:58:04;29.90;65.40
7232;DHT22;3657;49.630;11.018;2022-07-23T13:00:32;29.90;65.00
7232;DHT22;3657;49.630;11.018;2022-07-23T13:02:58;30.00;65.20
7232;DHT22;3657;49.630;11.018;2022-07-23T13:05:25;30.20;64.60
7232;DHT22;3657;49.630;11.018;2022-07-23T13:07:53;30.30;64.60
7232;DHT22;3657;49.630;11.018;2022-07-23T13:10:20;30.30;63.80
7232;DHT22;3657;49.630;11.018;2022-07-23T13:12:46;30.50;63.60
7232;DHT22;3657;49.630;11.018;2022-07-23T13:15:13;30.70;63.00
7232;DHT22;3657;49.630;11.018;2022-07-23T13:17:40;30.80;62.80
7232;DHT22;3657;49.630;11.018;2022-07-23T13:20:10;30.80;62.60
7232;DHT22;3657;49.630;11.018;2022-07-23T13:22:37;30.70;62.80
7232;DHT22;3657;49.630;11.018;2022-07-23T13:25:06;30.60;62.70
7232;DHT22;3657;49.630;11.018;2022-07-23T13:27:33;30.50;63.10
7232;DHT22;3657;49.630;11.018;2022-07-23T13:30:00;30.50;63.20
7232;DHT22;3657;49.630;11.018;2022-07-23T13:32:27;30.70;63.00
7232;DHT22;3657;49.630;11.018;2022-07-23T13:34:53;30.80;62.90
7232;DHT22;3657;49.630;11.018;2022-07-23T13:37:20;30.80;62.90
7232;DHT22;3657;49.630;11.018;2022-07-23T13:39:47;31.00;62.60
7232;DHT22;3657;49.630;11.018;2022-07-23T13:42:15;31.10;62.40
7232;DHT22;3657;49.630;11.018;2022-07-23T13:44:41;31.30;62.20
7232;DHT22;3657;49.630;11.018;2022-07-23T13:47:08;31.30;61.70
7232;DHT22;3657;49.630;11.018;2022-07-23T13:49:35;31.30;61.60
7232;DHT22;3657;49.630;11.018;2022-07-23T13:52:02;31.30;61.70
7232;DHT22;3657;49.630;11.018;2022-07-23T13:54:29;31.40;61.30
7232;DHT22;3657;49.630;11.018;2022-07-23T13:56:55;31.20;61.10
7232;DHT22;3657;49.630;11.018;2022-07-23T13:59:23;31.30;61.20
7232;DHT22;3657;49.630;11.018;2022-07-23T14:01:50;31.40;60.10
7232;DHT22;3657;49.630;11.018;2022-07-23T14:04:17;31.40;60.40
7232;DHT22;3657;49.630;11.018;2022-07-23T14:06:44;31.50;60.20
7232;DHT22;3657;49.630;11.018;2022-07-23T14:09:10;31.60;60.00
7232;DHT22;3657;49.630;11.018;2022-07-23T14:11:37;31.60;59.60
7232;DHT22;3657;49.630;11.018;2022-07-23T14:14:04;31.60;59.90
7232;DHT22;3657;49.630;11.018;2022-07-23T14:16:32;31.60;59.60
7232;DHT22;3657;49.630;11.018;2022-07-23T14:18:59;31.60;59.60
7232;DHT22;3657;49.630;11.018;2022-07-23T14:21:26;31.60;59.50
7232;DHT22;3657;49.630;11.018;2022-07-23T14:23:52;31.60;59.10
7232;DHT22;3657;49.630;11.018;2022-07-23T14:26:19;31.50;59.50
7232;DHT22;3657;49.630;11.018;2022-07-23T14:28:51;31.60;59.70
7232;DHT22;3657;49.630;11.018;2022-07-23T14:31:18;31.60;59.80
7232;DHT22;3657;49.630;11.018;2022-07-23T14:33:46;31.70;59.80
7232;DHT22;3657;49.630;11.018;2022-07-23T14:36:13;31.70;58.80
7232;DHT22;3657;49.630;11.018;2022-07-23T14:38:40;31.70;59.20
7232;DHT22;3657;49.630;11.018;2022-07-23T14:41:06;31.70;58.00
7232;DHT22;3657;49.630;11.018;2022-07-23T14:43:33;31.70;58.90
7232;DHT22;3657;49.630;11.018;2022-07-23T14:46:00;31.70;59.50
7232;DHT22;3657;49.630;11.018;2022-07-23T14:48:27;31.70;58.40
7232;DHT22;3657;49.630;11.018;2022-07-23T14:50:55;31.70;58.50
7232;DHT22;3657;49.630;11.018;2022-07-23T14:53:21;31.70;56.10
7232;DHT22;3657;49.630;11.018;2022-07-23T14:55:48;31.70;56.30
7232;DHT22;3657;49.630;11.018;2022-07-23T14:58:15;31.80;57.80
7232;DHT22;3657;49.630;11.018;2022-07-23T15:00:43;31.80;57.50
7232;DHT22;3657;49.630;11.018;2022-07-23T15:03:09;31.80;57.60
7232;DHT22;3657;49.630;11.018;2022-07-23T15:05:36;31.90;57.40
7232;DHT22;3657;49.630;11.018;2022-07-23T15:08:04;31.90;57.10
7232;DHT22;3657;49.630;11.018;2022-07-23T15:10:31;31.80;56.40
7232;DHT22;3657;49.630;11.018;2022-07-23T15:12:58;31.80;56.40
7232;DHT22;3657;49.630;11.018;2022-07-23T15:15:25;31.70;57.50
7232;DHT22;3657;49.630;11.018;2022-07-23T15:17:51;31.70;56.90
7232;DHT22;3657;49.630;11.018;2022-07-23T15:20:18;31.60;57.40
7232;DHT22;3657;49.630;11.018;2022-07-23T15:22:45;31.60;57.40
7232;DHT22;3657;49.630;11.018;2022-07-23T15:25:14;31.60;57.20
7232;DHT22;3657;49.630;11.018;2022-07-23T15:27:41;31.60;56.10
7232;DHT22;3657;49.630;11.018;2022-07-23T15:30:08;31.50;54.90
7232;DHT22;3657;49.630;11.018;2022-07-23T15:32:35;31.40;56.10
7232;DHT22;3657;49.630;11.018;2022-07-23T15:35:02;31.40;56.00
7232;DHT22;3657;49.630;11.018;2022-07-23T15:37:32;31.30;56.30
7232;DHT22;3657;49.630;11.018;2022-07-23T15:39:59;31.30;57.40
7232;DHT22;3657;49.630;11.018;2022-07-23T15:42:27;31.30;56.00
7232;DHT22;3657;49.630;11.018;2022-07-23T15:44:53;31.10;55.80
7232;DHT22;3657;49.630;11.018;2022-07-23T15:47:20;31.00;55.70
7232;DHT22;3657;49.630;11.018;2022-07-23T15:49:47;31.00;56.40
7232;DHT22;3657;49.630;11.018;2022-07-23T15:52:14;31.00;56.80